Terminal Aerodrome Forecast
Issued by NWS Cleveland, OH

Home | Current Version | Previous Version | Graphics & Text | Print | Product List | Glossary On
Versions: 1 2 3 4 5 6 7 8 9 10 11 12 13 14 15 16 17 18 19 20 21 22 23 24
624
FTUS41 KCLE 242340
TAFCAK
TAF
KCAK 242340Z 2500/2524 12008KT P6SM SCT015 OVC070
      TEMPO 2500/2501 5SM -SHRA BKN020 OVC050
     FM250100 12008KT 6SM -SHRA SCT008 OVC015
     FM250300 13010KT 3SM RA BR OVC006
     FM250600 12012KT 3SM RA VCTS OVC008CB
     FM250900 18014G24KT 4SM -SHRA BR BKN010 OVC025
     FM251300 23018G30KT P6SM VCSH SCT008 OVC020
     FM251700 26018G28KT P6SM SCT035=

USA.gov is the U.S. government's official web portal to all federal, state and local government web resources and services.